Thunder Bay International Airport

Airport
ICAO code: 
CYQT
Summary
ICAO Region: 
NAM
Territory: 
Location: 
Thunder Bay, Ontario,
Coordinates: 
Aerial View: 
48° 22' 18.998" N, 89° 19' 26" W
Airport CFIT: 
Altimeter Temperature Error Correction
Airport GND: 
Aircraft Ground De/Anti Icing
Airport RE: 
Crosswind Landings
Airport WX: 
Low Level Turbulence
Metar
Observation
CYQT 052318Z 09024G31KT 3/4SM R07/5000VP6000FT/D -SN DRSN VV008 M01/M02 A2972 RMK SN8 VIS VRB 1/2-1 SLP080
Station
Thunder Bay, Ont.
Date/Time
2021-12-05 23:18:00
Wind direction
90°
Wind speed
24 kts
Lowest cloud amount
n/a
Temperature
7°C
Dew point
50°C
Humidity
1227%
Weather condition
n/a

Description

International airport located in Thunder Bay, Ontario, Canada.

Climatology

Humid Continental climate (Köppen climate classification Dfb) - Variable weather patterns and a large seasonal temperature variance. Summers are often warm and humid with frequent thunderstorms and winters can be very cold with frequent snowfall and persistent snow cover.

Runways

Designator Length Width Surface Rops
12/30 1615 61 ASP Yes/Yes
7/25 1890 61 ASP Yes/Yes
Airport map: 
Aerial View: 

SKYbrary Partners:

Safety knowledge contributed by: